sensor_id;sensor_type;location;lat;lon;timestamp;P1;durP1;ratioP1;P2;durP2;ratioP2
55497;SDS011;41357;52.806;18.268;2024-03-23T00:55:12;24.05;;;10.80;;
55497;SDS011;41357;52.806;18.268;2024-03-23T00:57:38;23.17;;;11.50;;
55497;SDS011;41357;52.806;18.268;2024-03-23T01:00:04;22.92;;;10.88;;
55497;SDS011;41357;52.806;18.268;2024-03-23T01:05:01;20.67;;;9.30;;
55497;SDS011;41357;52.806;18.268;2024-03-23T01:07:27;19.10;;;9.35;;
55497;SDS011;41357;52.806;18.268;2024-03-23T01:09:53;20.48;;;10.50;;
55497;SDS011;41357;52.806;18.268;2024-03-23T01:12:19;23.48;;;10.50;;
55497;SDS011;41357;52.806;18.268;2024-03-23T01:14:45;23.38;;;10.85;;
55497;SDS011;41357;52.806;18.268;2024-03-23T01:17:11;21.85;;;9.77;;
55497;SDS011;41357;52.806;18.268;2024-03-23T01:19:37;23.65;;;10.18;;
55497;SDS011;41357;52.806;18.268;2024-03-23T01:22:04;25.10;;;10.50;;
55497;SDS011;41357;52.806;18.268;2024-03-23T01:24:30;18.25;;;9.70;;
55497;SDS011;41357;52.806;18.268;2024-03-23T01:26:56;22.88;;;10.95;;
55497;SDS011;41357;52.806;18.268;2024-03-23T01:29:23;17.75;;;9.80;;
55497;SDS011;41357;52.806;18.268;2024-03-23T01:31:49;23.67;;;10.60;;
55497;SDS011;41357;52.806;18.268;2024-03-23T01:34:15;20.08;;;9.63;;
55497;SDS011;41357;52.806;18.268;2024-03-23T01:36:41;17.95;;;9.18;;
55497;SDS011;41357;52.806;18.268;2024-03-23T01:39:07;23.52;;;10.82;;
55497;SDS011;41357;52.806;18.268;2024-03-23T01:41:36;23.10;;;10.82;;
55497;SDS011;41357;52.806;18.268;2024-03-23T01:44:07;25.45;;;10.27;;
55497;SDS011;41357;52.806;18.268;2024-03-23T01:46:37;18.60;;;9.57;;
55497;SDS011;41357;52.806;18.268;2024-03-23T01:49:06;20.33;;;10.30;;
55497;SDS011;41357;52.806;18.268;2024-03-23T01:51:32;22.13;;;10.60;;
55497;SDS011;41357;52.806;18.268;2024-03-23T01:53:59;22.10;;;10.75;;
55497;SDS011;41357;52.806;18.268;2024-03-23T01:56:28;18.38;;;10.15;;
55497;SDS011;41357;52.806;18.268;2024-03-23T01:58:55;25.75;;;11.45;;
55497;SDS011;41357;52.806;18.268;2024-03-23T02:01:21;19.80;;;9.52;;
55497;SDS011;41357;52.806;18.268;2024-03-23T02:03:47;24.23;;;11.02;;
55497;SDS011;41357;52.806;18.268;2024-03-23T02:06:13;21.88;;;10.88;;
55497;SDS011;41357;52.806;18.268;2024-03-23T02:08:40;23.67;;;11.60;;
55497;SDS011;41357;52.806;18.268;2024-03-23T02:11:06;21.85;;;10.50;;
55497;SDS011;41357;52.806;18.268;2024-03-23T02:13:32;23.30;;;11.55;;
55497;SDS011;41357;52.806;18.268;2024-03-23T02:15:58;23.20;;;12.05;;
55497;SDS011;41357;52.806;18.268;2024-03-23T02:18:24;23.15;;;10.98;;
55497;SDS011;41357;52.806;18.268;2024-03-23T02:20:51;25.92;;;12.10;;
55497;SDS011;41357;52.806;18.268;2024-03-23T02:23:17;20.70;;;10.23;;
55497;SDS011;41357;52.806;18.268;2024-03-23T02:25:43;27.42;;;11.77;;
55497;SDS011;41357;52.806;18.268;2024-03-23T02:28:10;24.15;;;11.55;;
55497;SDS011;41357;52.806;18.268;2024-03-23T02:30:36;20.02;;;4.93;;
55497;SDS011;41357;52.806;18.268;2024-03-23T02:33:02;9.90;;;3.55;;
55497;SDS011;41357;52.806;18.268;2024-03-23T02:35:28;12.57;;;3.85;;
55497;SDS011;41357;52.806;18.268;2024-03-23T02:37:55;14.93;;;4.20;;
55497;SDS011;41357;52.806;18.268;2024-03-23T02:40:22;18.40;;;3.17;;
55497;SDS011;41357;52.806;18.268;2024-03-23T02:42:49;9.32;;;4.22;;
55497;SDS011;41357;52.806;18.268;2024-03-23T02:45:15;12.43;;;2.95;;
55497;SDS011;41357;52.806;18.268;2024-03-23T02:47:42;19.52;;;3.65;;
55497;SDS011;41357;52.806;18.268;2024-03-23T02:50:08;9.75;;;2.63;;
55497;SDS011;41357;52.806;18.268;2024-03-23T02:52:35;20.98;;;3.90;;
55497;SDS011;41357;52.806;18.268;2024-03-23T02:55:01;15.75;;;3.25;;
55497;SDS011;41357;52.806;18.268;2024-03-23T02:57:28;15.43;;;3.08;;
55497;SDS011;41357;52.806;18.268;2024-03-23T02:59:54;11.20;;;2.75;;
55497;SDS011;41357;52.806;18.268;2024-03-23T03:02:21;12.40;;;2.70;;
55497;SDS011;41357;52.806;18.268;2024-03-23T03:04:47;16.63;;;2.40;;
55497;SDS011;41357;52.806;18.268;2024-03-23T03:07:13;11.40;;;2.88;;
55497;SDS011;41357;52.806;18.268;2024-03-23T03:09:40;13.82;;;2.00;;
55497;SDS011;41357;52.806;18.268;2024-03-23T03:12:06;10.68;;;2.72;;
55497;SDS011;41357;52.806;18.268;2024-03-23T03:14:32;11.02;;;2.30;;
55497;SDS011;41357;52.806;18.268;2024-03-23T03:16:58;9.80;;;2.03;;
55497;SDS011;41357;52.806;18.268;2024-03-23T03:19:24;12.05;;;2.75;;
55497;SDS011;41357;52.806;18.268;2024-03-23T03:21:51;12.35;;;2.63;;
55497;SDS011;41357;52.806;18.268;2024-03-23T03:24:17;11.63;;;2.08;;
55497;SDS011;41357;52.806;18.268;2024-03-23T03:26:43;21.13;;;3.28;;
55497;SDS011;41357;52.806;18.268;2024-03-23T03:29:09;28.83;;;7.28;;
55497;SDS011;41357;52.806;18.268;2024-03-23T03:31:37;21.75;;;4.72;;
55497;SDS011;41357;52.806;18.268;2024-03-23T03:34:03;23.80;;;4.78;;
55497;SDS011;41357;52.806;18.268;2024-03-23T03:36:29;16.35;;;3.88;;
55497;SDS011;41357;52.806;18.268;2024-03-23T03:38:55;13.95;;;2.80;;
55497;SDS011;41357;52.806;18.268;2024-03-23T03:41:21;17.23;;;2.65;;
55497;SDS011;41357;52.806;18.268;2024-03-23T03:43:47;9.68;;;1.90;;
55497;SDS011;41357;52.806;18.268;2024-03-23T03:46:13;10.88;;;2.22;;
55497;SDS011;41357;52.806;18.268;2024-03-23T03:48:40;22.27;;;3.88;;
55497;SDS011;41357;52.806;18.268;2024-03-23T03:51:06;19.83;;;3.17;;
55497;SDS011;41357;52.806;18.268;2024-03-23T03:53:32;20.95;;;2.97;;
55497;SDS011;41357;52.806;18.268;2024-03-23T03:56:01;13.18;;;2.60;;
55497;SDS011;41357;52.806;18.268;2024-03-23T03:58:27;15.68;;;2.53;;
55497;SDS011;41357;52.806;18.268;2024-03-23T04:00:53;16.48;;;2.30;;
55497;SDS011;41357;52.806;18.268;2024-03-23T04:03:20;20.77;;;4.65;;
55497;SDS011;41357;52.806;18.268;2024-03-23T04:05:53;10.20;;;1.83;;
55497;SDS011;41357;52.806;18.268;2024-03-23T04:08:20;10.10;;;2.22;;
55497;SDS011;41357;52.806;18.268;2024-03-23T04:10:47;11.35;;;2.95;;
55497;SDS011;41357;52.806;18.268;2024-03-23T04:13:13;18.60;;;3.25;;
55497;SDS011;41357;52.806;18.268;2024-03-23T04:15:39;24.13;;;4.85;;
55497;SDS011;41357;52.806;18.268;2024-03-23T04:18:06;17.50;;;2.90;;
55497;SDS011;41357;52.806;18.268;2024-03-23T04:20:32;11.32;;;2.50;;
55497;SDS011;41357;52.806;18.268;2024-03-23T04:22:58;17.08;;;3.20;;
55497;SDS011;41357;52.806;18.268;2024-03-23T04:25:25;12.18;;;2.60;;
55497;SDS011;41357;52.806;18.268;2024-03-23T04:27:51;9.27;;;2.83;;
55497;SDS011;41357;52.806;18.268;2024-03-23T04:30:17;11.43;;;2.67;;
55497;SDS011;41357;52.806;18.268;2024-03-23T04:32:44;18.60;;;3.38;;
55497;SDS011;41357;52.806;18.268;2024-03-23T04:35:10;13.70;;;3.30;;
55497;SDS011;41357;52.806;18.268;2024-03-23T04:37:39;12.77;;;3.40;;
55497;SDS011;41357;52.806;18.268;2024-03-23T04:40:06;15.25;;;2.92;;
55497;SDS011;41357;52.806;18.268;2024-03-23T04:42:32;21.35;;;3.97;;
55497;SDS011;41357;52.806;18.268;2024-03-23T04:44:58;11.82;;;3.20;;
55497;SDS011;41357;52.806;18.268;2024-03-23T04:47:25;13.77;;;3.50;;
55497;SDS011;41357;52.806;18.268;2024-03-23T04:49:51;16.35;;;3.85;;
55497;SDS011;41357;52.806;18.268;2024-03-23T04:52:17;10.98;;;3.40;;
55497;SDS011;41357;52.806;18.268;2024-03-23T04:54:43;14.30;;;3.30;;
55497;SDS011;41357;52.806;18.268;2024-03-23T04:57:10;14.50;;;2.78;;
55497;SDS011;41357;52.806;18.268;2024-03-23T04:59:37;13.38;;;3.05;;
55497;SDS011;41357;52.806;18.268;2024-03-23T05:02:03;15.63;;;3.80;;
55497;SDS011;41357;52.806;18.268;2024-03-23T05:04:29;11.32;;;3.50;;
55497;SDS011;41357;52.806;18.268;2024-03-23T05:06:57;16.70;;;3.30;;
55497;SDS011;41357;52.806;18.268;2024-03-23T05:09:23;15.63;;;3.35;;
55497;SDS011;41357;52.806;18.268;2024-03-23T05:11:49;12.18;;;3.90;;
55497;SDS011;41357;52.806;18.268;2024-03-23T05:14:15;18.40;;;3.50;;
55497;SDS011;41357;52.806;18.268;2024-03-23T05:16:41;20.63;;;4.40;;
55497;SDS011;41357;52.806;18.268;2024-03-23T05:19:08;15.00;;;3.58;;
55497;SDS011;41357;52.806;18.268;2024-03-23T05:21:34;13.30;;;3.42;;
55497;SDS011;41357;52.806;18.268;2024-03-23T05:24:00;9.15;;;3.28;;
55497;SDS011;41357;52.806;18.268;2024-03-23T05:26:26;9.95;;;4.30;;
55497;SDS011;41357;52.806;18.268;2024-03-23T05:28:52;17.48;;;4.97;;
55497;SDS011;41357;52.806;18.268;2024-03-23T05:31:25;12.98;;;3.53;;
55497;SDS011;41357;52.806;18.268;2024-03-23T05:33:51;20.05;;;5.05;;
55497;SDS011;41357;52.806;18.268;2024-03-23T05:36:17;25.40;;;4.07;;
55497;SDS011;41357;52.806;18.268;2024-03-23T05:38:44;18.30;;;3.75;;
55497;SDS011;41357;52.806;18.268;2024-03-23T05:41:10;16.83;;;4.00;;
55497;SDS011;41357;52.806;18.268;2024-03-23T05:43:36;15.50;;;3.97;;
55497;SDS011;41357;52.806;18.268;2024-03-23T05:46:02;14.77;;;3.80;;
55497;SDS011;41357;52.806;18.268;2024-03-23T05:48:30;13.35;;;3.55;;
55497;SDS011;41357;52.806;18.268;2024-03-23T05:50:56;17.55;;;3.70;;
55497;SDS011;41357;52.806;18.268;2024-03-23T05:53:23;18.27;;;4.80;;
55497;SDS011;41357;52.806;18.268;2024-03-23T05:55:50;20.95;;;6.28;;
55497;SDS011;41357;52.806;18.268;2024-03-23T05:58:19;17.55;;;5.47;;
55497;SDS011;41357;52.806;18.268;2024-03-23T06:00:45;17.10;;;5.40;;
55497;SDS011;41357;52.806;18.268;2024-03-23T06:03:11;24.00;;;4.75;;
55497;SDS011;41357;52.806;18.268;2024-03-23T06:05:38;21.65;;;4.93;;
55497;SDS011;41357;52.806;18.268;2024-03-23T06:08:04;17.92;;;4.60;;
55497;SDS011;41357;52.806;18.268;2024-03-23T06:10:31;16.02;;;4.50;;
55497;SDS011;41357;52.806;18.268;2024-03-23T06:12:57;21.67;;;3.95;;
55497;SDS011;41357;52.806;18.268;2024-03-23T06:15:24;11.40;;;3.47;;
55497;SDS011;41357;52.806;18.268;2024-03-23T06:17:50;22.20;;;4.30;;
55497;SDS011;41357;52.806;18.268;2024-03-23T06:20:17;17.55;;;5.90;;
55497;SDS011;41357;52.806;18.268;2024-03-23T06:22:43;29.27;;;10.80;;
55497;SDS011;41357;52.806;18.268;2024-03-23T06:25:09;18.55;;;5.57;;
55497;SDS011;41357;52.806;18.268;2024-03-23T06:27:37;17.55;;;5.15;;
55497;SDS011;41357;52.806;18.268;2024-03-23T06:30:04;15.20;;;5.03;;
55497;SDS011;41357;52.806;18.268;2024-03-23T06:32:32;15.93;;;3.58;;
55497;SDS011;41357;52.806;18.268;2024-03-23T06:34:58;13.45;;;4.07;;
55497;SDS011;41357;52.806;18.268;2024-03-23T06:37:25;21.00;;;4.07;;
55497;SDS011;41357;52.806;18.268;2024-03-23T06:39:53;13.15;;;2.75;;
55497;SDS011;41357;52.806;18.268;2024-03-23T06:42:19;25.33;;;6.80;;
55497;SDS011;41357;52.806;18.268;2024-03-23T06:44:46;12.93;;;2.78;;
55497;SDS011;41357;52.806;18.268;2024-03-23T06:47:12;10.13;;;2.35;;
55497;SDS011;41357;52.806;18.268;2024-03-23T06:49:38;14.05;;;2.58;;
55497;SDS011;41357;52.806;18.268;2024-03-23T06:52:04;42.97;;;11.05;;
55497;SDS011;41357;52.806;18.268;2024-03-23T06:54:30;25.98;;;5.75;;
55497;SDS011;41357;52.806;18.268;2024-03-23T06:56:56;11.23;;;2.90;;
55497;SDS011;41357;52.806;18.268;2024-03-23T06:59:23;15.05;;;4.65;;
55497;SDS011;41357;52.806;18.268;2024-03-23T07:01:49;16.15;;;4.43;;
55497;SDS011;41357;52.806;18.268;2024-03-23T07:04:15;42.15;;;11.25;;
55497;SDS011;41357;52.806;18.268;2024-03-23T07:06:45;18.95;;;7.05;;
55497;SDS011;41357;52.806;18.268;2024-03-23T07:09:11;22.73;;;5.50;;
55497;SDS011;41357;52.806;18.268;2024-03-23T07:11:37;25.08;;;5.90;;
55497;SDS011;41357;52.806;18.268;2024-03-23T07:14:04;19.08;;;6.55;;
55497;SDS011;41357;52.806;18.268;2024-03-23T07:16:30;19.35;;;4.50;;
55497;SDS011;41357;52.806;18.268;2024-03-23T07:18:56;20.20;;;3.83;;
55497;SDS011;41357;52.806;18.268;2024-03-23T07:21:22;21.98;;;8.05;;
55497;SDS011;41357;52.806;18.268;2024-03-23T07:23:48;25.83;;;8.07;;
55497;SDS011;41357;52.806;18.268;2024-03-23T07:26:14;28.23;;;9.20;;
55497;SDS011;41357;52.806;18.268;2024-03-23T07:28:41;23.65;;;5.80;;
55497;SDS011;41357;52.806;18.268;2024-03-23T07:31:11;17.33;;;3.07;;
55497;SDS011;41357;52.806;18.268;2024-03-23T07:33:41;16.23;;;2.85;;
55497;SDS011;41357;52.806;18.268;2024-03-23T07:36:08;16.52;;;2.60;;
55497;SDS011;41357;52.806;18.268;2024-03-23T07:38:34;10.43;;;2.22;;
55497;SDS011;41357;52.806;18.268;2024-03-23T07:41:10;7.20;;;2.15;;
55497;SDS011;41357;52.806;18.268;2024-03-23T07:43:37;14.38;;;2.40;;
55497;SDS011;41357;52.806;18.268;2024-03-23T07:46:03;11.55;;;2.47;;
55497;SDS011;41357;52.806;18.268;2024-03-23T07:48:29;15.73;;;3.08;;
55497;SDS011;41357;52.806;18.268;2024-03-23T07:51:03;14.32;;;2.67;;
55497;SDS011;41357;52.806;18.268;2024-03-23T07:53:29;15.73;;;2.33;;
55497;SDS011;41357;52.806;18.268;2024-03-23T07:56:03;13.25;;;3.50;;
55497;SDS011;41357;52.806;18.268;2024-03-23T07:58:29;17.95;;;4.43;;
55497;SDS011;41357;52.806;18.268;2024-03-23T08:00:55;15.07;;;3.15;;
55497;SDS011;41357;52.806;18.268;2024-03-23T08:03:22;16.35;;;2.72;;
55497;SDS011;41357;52.806;18.268;2024-03-23T08:05:48;12.15;;;2.47;;
55497;SDS011;41357;52.806;18.268;2024-03-23T08:08:14;17.38;;;3.80;;
55497;SDS011;41357;52.806;18.268;2024-03-23T08:10:47;18.63;;;4.07;;
55497;SDS011;41357;52.806;18.268;2024-03-23T08:13:13;25.00;;;5.28;;
55497;SDS011;41357;52.806;18.268;2024-03-23T08:15:39;13.60;;;4.20;;
55497;SDS011;41357;52.806;18.268;2024-03-23T08:18:06;15.70;;;4.85;;
55497;SDS011;41357;52.806;18.268;2024-03-23T08:20:32;17.52;;;4.32;;
55497;SDS011;41357;52.806;18.268;2024-03-23T08:22:58;20.50;;;6.00;;
55497;SDS011;41357;52.806;18.268;2024-03-23T08:25:24;17.77;;;4.93;;
55497;SDS011;41357;52.806;18.268;2024-03-23T08:27:50;20.67;;;4.47;;
55497;SDS011;41357;52.806;18.268;2024-03-23T08:30:17;14.40;;;4.18;;
55497;SDS011;41357;52.806;18.268;2024-03-23T08:32:43;12.05;;;3.92;;
55497;SDS011;41357;52.806;18.268;2024-03-23T08:35:11;19.25;;;4.55;;
55497;SDS011;41357;52.806;18.268;2024-03-23T08:37:37;19.10;;;4.68;;
55497;SDS011;41357;52.806;18.268;2024-03-23T08:40:03;14.18;;;4.68;;
55497;SDS011;41357;52.806;18.268;2024-03-23T08:42:30;19.38;;;3.97;;
55497;SDS011;41357;52.806;18.268;2024-03-23T08:44:56;17.15;;;3.85;;
55497;SDS011;41357;52.806;18.268;2024-03-23T08:47:22;15.23;;;3.80;;
55497;SDS011;41357;52.806;18.268;2024-03-23T08:49:48;9.57;;;3.30;;
55497;SDS011;41357;52.806;18.268;2024-03-23T08:52:14;15.77;;;3.78;;
55497;SDS011;41357;52.806;18.268;2024-03-23T08:54:40;15.43;;;3.63;;
55497;SDS011;41357;52.806;18.268;2024-03-23T08:57:07;12.57;;;4.53;;
55497;SDS011;41357;52.806;18.268;2024-03-23T08:59:33;11.63;;;3.67;;
55497;SDS011;41357;52.806;18.268;2024-03-23T09:01:59;8.88;;;2.30;;
55497;SDS011;41357;52.806;18.268;2024-03-23T09:04:25;7.85;;;2.00;;
55497;SDS011;41357;52.806;18.268;2024-03-23T09:06:52;7.45;;;2.17;;
55497;SDS011;41357;52.806;18.268;2024-03-23T09:09:18;8.88;;;2.40;;
55497;SDS011;41357;52.806;18.268;2024-03-23T09:11:45;4.80;;;1.67;;
55497;SDS011;41357;52.806;18.268;2024-03-23T09:14:11;6.95;;;2.15;;
55497;SDS011;41357;52.806;18.268;2024-03-23T09:16:37;10.13;;;2.65;;
55497;SDS011;41357;52.806;18.268;2024-03-23T09:19:03;12.25;;;2.33;;
55497;SDS011;41357;52.806;18.268;2024-03-23T09:21:29;6.05;;;3.28;;
55497;SDS011;41357;52.806;18.268;2024-03-23T09:23:55;7.90;;;3.40;;
55497;SDS011;41357;52.806;18.268;2024-03-23T09:26:21;8.88;;;3.70;;
55497;SDS011;41357;52.806;18.268;2024-03-23T09:28:48;12.40;;;2.90;;
55497;SDS011;41357;52.806;18.268;2024-03-23T09:31:14;9.07;;;2.80;;
55497;SDS011;41357;52.806;18.268;2024-03-23T09:33:41;10.15;;;3.03;;
55497;SDS011;41357;52.806;18.268;2024-03-23T09:36:08;12.27;;;3.10;;
55497;SDS011;41357;52.806;18.268;2024-03-23T09:38:34;5.50;;;2.55;;
55497;SDS011;41357;52.806;18.268;2024-03-23T09:41:06;11.43;;;3.80;;
55497;SDS011;41357;52.806;18.268;2024-03-23T09:43:32;5.88;;;2.03;;
55497;SDS011;41357;52.806;18.268;2024-03-23T09:45:58;9.57;;;1.88;;
55497;SDS011;41357;52.806;18.268;2024-03-23T09:48:25;5.95;;;2.03;;
55497;SDS011;41357;52.806;18.268;2024-03-23T09:50:51;2.88;;;1.63;;
55497;SDS011;41357;52.806;18.268;2024-03-23T09:53:17;9.52;;;2.33;;
55497;SDS011;41357;52.806;18.268;2024-03-23T09:55:44;9.15;;;1.90;;
55497;SDS011;41357;52.806;18.268;2024-03-23T09:58:17;11.80;;;2.88;;
55497;SDS011;41357;52.806;18.268;2024-03-23T10:00:43;4.50;;;2.10;;
55497;SDS011;41357;52.806;18.268;2024-03-23T10:03:10;9.35;;;2.90;;
55497;SDS011;41357;52.806;18.268;2024-03-23T10:05:36;6.20;;;2.45;;
55497;SDS011;41357;52.806;18.268;2024-03-23T10:10:41;10.25;;;2.72;;
55497;SDS011;41357;52.806;18.268;2024-03-23T10:13:07;6.13;;;3.13;;
55497;SDS011;41357;52.806;18.268;2024-03-23T10:15:34;23.50;;;7.57;;
55497;SDS011;41357;52.806;18.268;2024-03-23T10:18:33;14.13;;;6.20;;
55497;SDS011;41357;52.806;18.268;2024-03-23T10:23:39;12.18;;;3.90;;
55497;SDS011;41357;52.806;18.268;2024-03-23T10:26:16;6.22;;;2.25;;
55497;SDS011;41357;52.806;18.268;2024-03-23T10:28:52;7.25;;;2.05;;
55497;SDS011;41357;52.806;18.268;2024-03-23T10:31:18;4.60;;;1.30;;
55497;SDS011;41357;52.806;18.268;2024-03-23T10:33:45;5.03;;;1.58;;
55497;SDS011;41357;52.806;18.268;2024-03-23T10:36:12;11.88;;;1.58;;
55497;SDS011;41357;52.806;18.268;2024-03-23T10:38:42;5.70;;;1.60;;
55497;SDS011;41357;52.806;18.268;2024-03-23T10:41:09;11.35;;;1.83;;
55497;SDS011;41357;52.806;18.268;2024-03-23T10:43:36;7.30;;;1.50;;
55497;SDS011;41357;52.806;18.268;2024-03-23T10:46:02;10.40;;;1.98;;
55497;SDS011;41357;52.806;18.268;2024-03-23T10:48:28;5.70;;;1.88;;
55497;SDS011;41357;52.806;18.268;2024-03-23T10:50:54;5.72;;;1.40;;
55497;SDS011;41357;52.806;18.268;2024-03-23T10:53:21;5.05;;;1.40;;
55497;SDS011;41357;52.806;18.268;2024-03-23T10:55:48;9.38;;;1.35;;
55497;SDS011;41357;52.806;18.268;2024-03-23T10:58:14;5.93;;;1.88;;
55497;SDS011;41357;52.806;18.268;2024-03-23T11:00:40;12.73;;;2.47;;
55497;SDS011;41357;52.806;18.268;2024-03-23T11:05:51;12.07;;;2.22;;
55497;SDS011;41357;52.806;18.268;2024-03-23T11:08:36;8.40;;;2.20;;
55497;SDS011;41357;52.806;18.268;2024-03-23T11:13:54;8.35;;;2.70;;
55497;SDS011;41357;52.806;18.268;2024-03-23T11:16:24;14.07;;;3.00;;
55497;SDS011;41357;52.806;18.268;2024-03-23T11:18:53;11.00;;;2.13;;
55497;SDS011;41357;52.806;18.268;2024-03-23T11:24:14;12.15;;;2.30;;
55497;SDS011;41357;52.806;18.268;2024-03-23T11:26:40;12.57;;;2.90;;
55497;SDS011;41357;52.806;18.268;2024-03-23T11:29:10;7.97;;;2.30;;
55497;SDS011;41357;52.806;18.268;2024-03-23T11:31:37;14.48;;;3.85;;
55497;SDS011;41357;52.806;18.268;2024-03-23T11:34:06;8.90;;;3.13;;
55497;SDS011;41357;52.806;18.268;2024-03-23T11:36:32;15.80;;;3.15;;
55497;SDS011;41357;52.806;18.268;2024-03-23T11:38:59;10.88;;;3.47;;
55497;SDS011;41357;52.806;18.268;2024-03-23T11:41:25;18.60;;;3.42;;
55497;SDS011;41357;52.806;18.268;2024-03-23T11:43:51;10.07;;;3.25;;
55497;SDS011;41357;52.806;18.268;2024-03-23T11:46:23;6.93;;;2.58;;
55497;SDS011;41357;52.806;18.268;2024-03-23T11:48:50;6.97;;;2.50;;
55497;SDS011;41357;52.806;18.268;2024-03-23T11:51:19;8.32;;;3.40;;
55497;SDS011;41357;52.806;18.268;2024-03-23T11:53:46;8.35;;;3.30;;
55497;SDS011;41357;52.806;18.268;2024-03-23T11:56:12;12.55;;;2.92;;
55497;SDS011;41357;52.806;18.268;2024-03-23T11:58:38;12.00;;;4.72;;
55497;SDS011;41357;52.806;18.268;2024-03-23T12:01:04;9.82;;;4.00;;
55497;SDS011;41357;52.806;18.268;2024-03-23T12:03:36;14.85;;;3.95;;
55497;SDS011;41357;52.806;18.268;2024-03-23T12:06:03;9.07;;;4.53;;
55497;SDS011;41357;52.806;18.268;2024-03-23T12:08:34;12.43;;;4.47;;
55497;SDS011;41357;52.806;18.268;2024-03-23T12:13:39;9.75;;;3.15;;
55497;SDS011;41357;52.806;18.268;2024-03-23T12:18:37;10.35;;;3.35;;
55497;SDS011;41357;52.806;18.268;2024-03-23T12:21:04;10.48;;;3.10;;
55497;SDS011;41357;52.806;18.268;2024-03-23T12:23:30;7.03;;;3.30;;
55497;SDS011;41357;52.806;18.268;2024-03-23T12:25:57;9.80;;;3.60;;
55497;SDS011;41357;52.806;18.268;2024-03-23T12:28:24;13.20;;;4.22;;
55497;SDS011;41357;52.806;18.268;2024-03-23T12:30:53;8.32;;;3.17;;
55497;SDS011;41357;52.806;18.268;2024-03-23T12:33:19;14.60;;;4.90;;
55497;SDS011;41357;52.806;18.268;2024-03-23T12:35:46;8.25;;;3.72;;
55497;SDS011;41357;52.806;18.268;2024-03-23T12:38:12;7.25;;;3.83;;
55497;SDS011;41357;52.806;18.268;2024-03-23T12:40:39;10.07;;;5.22;;
55497;SDS011;41357;52.806;18.268;2024-03-23T12:43:06;9.55;;;3.85;;
55497;SDS011;41357;52.806;18.268;2024-03-23T12:45:32;10.70;;;3.60;;
55497;SDS011;41357;52.806;18.268;2024-03-23T12:47:59;12.10;;;3.45;;
55497;SDS011;41357;52.806;18.268;2024-03-23T12:50:25;4.68;;;2.55;;
55497;SDS011;41357;52.806;18.268;2024-03-23T12:52:51;6.85;;;2.40;;
55497;SDS011;41357;52.806;18.268;2024-03-23T12:55:17;3.22;;;2.13;;
55497;SDS011;41357;52.806;18.268;2024-03-23T12:57:43;7.30;;;2.35;;
55497;SDS011;41357;52.806;18.268;2024-03-23T13:00:09;6.63;;;2.38;;
55497;SDS011;41357;52.806;18.268;2024-03-23T13:02:37;8.30;;;2.70;;
55497;SDS011;41357;52.806;18.268;2024-03-23T13:05:04;5.97;;;2.53;;
55497;SDS011;41357;52.806;18.268;2024-03-23T13:07:30;4.63;;;2.25;;
55497;SDS011;41357;52.806;18.268;2024-03-23T13:09:56;4.40;;;1.70;;
55497;SDS011;41357;52.806;18.268;2024-03-23T13:12:23;5.47;;;2.08;;
55497;SDS011;41357;52.806;18.268;2024-03-23T13:14:49;7.38;;;2.63;;
55497;SDS011;41357;52.806;18.268;2024-03-23T13:17:15;5.13;;;2.45;;
55497;SDS011;41357;52.806;18.268;2024-03-23T13:19:41;7.47;;;1.92;;
55497;SDS011;41357;52.806;18.268;2024-03-23T13:22:07;8.10;;;2.13;;
55497;SDS011;41357;52.806;18.268;2024-03-23T13:24:36;4.63;;;1.88;;
55497;SDS011;41357;52.806;18.268;2024-03-23T13:27:03;8.13;;;1.58;;
55497;SDS011;41357;52.806;18.268;2024-03-23T13:29:30;5.00;;;2.13;;
55497;SDS011;41357;52.806;18.268;2024-03-23T13:31:56;3.55;;;1.77;;
55497;SDS011;41357;52.806;18.268;2024-03-23T13:34:22;5.30;;;2.15;;
55497;SDS011;41357;52.806;18.268;2024-03-23T13:36:48;2.95;;;1.58;;
55497;SDS011;41357;52.806;18.268;2024-03-23T13:39:15;6.97;;;2.80;;
55497;SDS011;41357;52.806;18.268;2024-03-23T13:41:41;3.78;;;1.83;;
55497;SDS011;41357;52.806;18.268;2024-03-23T13:44:08;4.63;;;2.95;;
55497;SDS011;41357;52.806;18.268;2024-03-23T13:46:38;4.22;;;2.10;;
55497;SDS011;41357;52.806;18.268;2024-03-23T13:49:07;5.93;;;2.08;;
55497;SDS011;41357;52.806;18.268;2024-03-23T13:51:33;7.07;;;1.83;;
55497;SDS011;41357;52.806;18.268;2024-03-23T13:54:00;4.68;;;2.20;;
55497;SDS011;41357;52.806;18.268;2024-03-23T13:56:26;5.72;;;2.15;;
55497;SDS011;41357;52.806;18.268;2024-03-23T13:58:54;7.28;;;2.30;;
55497;SDS011;41357;52.806;18.268;2024-03-23T14:01:20;5.38;;;2.58;;
55497;SDS011;41357;52.806;18.268;2024-03-23T14:03:47;6.25;;;2.42;;
55497;SDS011;41357;52.806;18.268;2024-03-23T14:06:13;6.22;;;3.30;;
55497;SDS011;41357;52.806;18.268;2024-03-23T14:08:39;11.05;;;2.75;;
55497;SDS011;41357;52.806;18.268;2024-03-23T14:11:05;9.63;;;3.40;;
55497;SDS011;41357;52.806;18.268;2024-03-23T14:13:31;8.15;;;4.07;;
55497;SDS011;41357;52.806;18.268;2024-03-23T14:15:58;8.75;;;3.03;;
55497;SDS011;41357;52.806;18.268;2024-03-23T14:18:25;5.75;;;2.42;;
55497;SDS011;41357;52.806;18.268;2024-03-23T14:20:51;6.32;;;2.67;;
55497;SDS011;41357;52.806;18.268;2024-03-23T14:23:18;7.25;;;2.53;;
55497;SDS011;41357;52.806;18.268;2024-03-23T14:25:44;15.13;;;6.30;;
55497;SDS011;41357;52.806;18.268;2024-03-23T14:28:10;7.80;;;4.70;;
55497;SDS011;41357;52.806;18.268;2024-03-23T14:30:40;10.10;;;5.53;;
55497;SDS011;41357;52.806;18.268;2024-03-23T14:33:07;9.23;;;2.55;;
55497;SDS011;41357;52.806;18.268;2024-03-23T14:35:33;3.80;;;2.45;;
55497;SDS011;41357;52.806;18.268;2024-03-23T14:37:59;2.25;;;1.17;;
55497;SDS011;41357;52.806;18.268;2024-03-23T14:40:25;7.18;;;2.25;;
55497;SDS011;41357;52.806;18.268;2024-03-23T14:42:52;3.03;;;1.35;;
55497;SDS011;41357;52.806;18.268;2024-03-23T14:45:19;3.67;;;1.38;;
55497;SDS011;41357;52.806;18.268;2024-03-23T14:47:46;4.30;;;2.30;;
55497;SDS011;41357;52.806;18.268;2024-03-23T14:50:12;4.97;;;1.92;;
55497;SDS011;41357;52.806;18.268;2024-03-23T14:52:49;2.78;;;0.93;;
55497;SDS011;41357;52.806;18.268;2024-03-23T14:55:16;1.38;;;1.13;;
55497;SDS011;41357;52.806;18.268;2024-03-23T14:57:42;3.55;;;1.33;;
55497;SDS011;41357;52.806;18.268;2024-03-23T15:00:09;9.25;;;1.50;;
55497;SDS011;41357;52.806;18.268;2024-03-23T15:02:38;3.50;;;1.60;;
55497;SDS011;41357;52.806;18.268;2024-03-23T15:05:04;1.60;;;0.90;;
55497;SDS011;41357;52.806;18.268;2024-03-23T15:07:34;2.03;;;1.27;;
55497;SDS011;41357;52.806;18.268;2024-03-23T15:10:01;1.95;;;1.05;;
55497;SDS011;41357;52.806;18.268;2024-03-23T15:12:27;5.03;;;1.10;;
55497;SDS011;41357;52.806;18.268;2024-03-23T15:14:53;1.40;;;0.90;;
55497;SDS011;41357;52.806;18.268;2024-03-23T15:17:21;3.75;;;1.77;;
55497;SDS011;41357;52.806;18.268;2024-03-23T15:19:47;2.78;;;1.15;;
55497;SDS011;41357;52.806;18.268;2024-03-23T15:22:13;1.13;;;0.70;;
55497;SDS011;41357;52.806;18.268;2024-03-23T15:24:39;3.45;;;1.48;;
55497;SDS011;41357;52.806;18.268;2024-03-23T15:27:05;5.28;;;1.83;;
55497;SDS011;41357;52.806;18.268;2024-03-23T15:29:34;2.60;;;1.98;;
55497;SDS011;41357;52.806;18.268;2024-03-23T15:32:01;2.92;;;0.68;;
55497;SDS011;41357;52.806;18.268;2024-03-23T15:34:28;3.40;;;1.00;;
55497;SDS011;41357;52.806;18.268;2024-03-23T15:36:54;5.45;;;2.08;;
55497;SDS011;41357;52.806;18.268;2024-03-23T15:39:21;2.45;;;1.58;;